Time;durP1;ratioP1;P1;durP2;ratioP2;P2;SDS_P1;SDS_P2;PMS_P1;PMS_P2;Temp;Humidity;BMP_temperature;BMP_pressure;BME280_temperature;BME280_humidity;BME280_pressure;Samples;Min_cycle;Max_cycle;Signal;HPM_P1;HPM_P2
2021/12/28 00:01:27;;;;;;;37.67;20.98;;;;;;;;;;6281112;22;20011;-94
2021/12/28 00:03:55;;;;;;;34.40;21.08;;;;;;;;;;6280979;22;20011;-93
2021/12/28 00:06:22;;;;;;;31.17;20.70;;;;;;;;;;6281133;22;20008;-93
2021/12/28 00:08:53;;;;;;;37.38;21.52;;;;;;;;;;6281685;22;20042;-93
2021/12/28 00:11:21;;;;;;;34.38;19.98;;;;;;;;;;6281039;22;20055;-93
2021/12/28 00:13:51;;;;;;;33.45;19.77;;;;;;;;;;6281132;22;20019;-91
2021/12/28 00:16:30;;;;;;;31.95;18.35;;;;;;;;;;6280620;22;20011;-92
2021/12/28 00:18:58;;;;;;;33.30;19.38;;;;;;;;;;6280501;22;20028;-94
2021/12/28 00:21:37;;;;;;;29.75;18.70;;;;;;;;;;6283150;22;20075;-92
2021/12/28 00:24:05;;;;;;;31.63;17.27;;;;;;;;;;6280665;22;20023;-92
2021/12/28 00:26:32;;;;;;;34.63;20.55;;;;;;;;;;6280447;22;20016;-93
2021/12/28 00:28:59;;;;;;;36.70;21.25;;;;;;;;;;6280621;22;20012;-92
2021/12/28 00:31:26;;;;;;;35.40;21.38;;;;;;;;;;6280647;22;20011;-93
2021/12/28 00:33:58;;;;;;;34.13;19.38;;;;;;;;;;6281165;22;20063;-92
2021/12/28 00:36:25;;;;;;;35.08;20.70;;;;;;;;;;6280328;22;20023;-94
2021/12/28 00:38:52;;;;;;;34.17;19.77;;;;;;;;;;6280452;22;20008;-93
2021/12/28 00:41:20;;;;;;;31.45;18.92;;;;;;;;;;6280415;22;20011;-92
2021/12/28 00:44:01;;;;;;;33.72;19.60;;;;;;;;;;6282567;22;20031;-93
2021/12/28 00:46:28;;;;;;;32.47;19.52;;;;;;;;;;6280313;22;20063;-92
2021/12/28 00:48:55;;;;;;;36.67;20.95;;;;;;;;;;6280171;22;20012;-92
2021/12/28 00:51:28;;;;;;;34.17;19.95;;;;;;;;;;6281701;22;20008;-92
2021/12/28 00:53:56;;;;;;;33.38;20.90;;;;;;;;;;6280639;22;20016;-94
2021/12/28 00:56:22;;;;;;;34.42;19.75;;;;;;;;;;6280295;22;20158;-93
2021/12/28 00:58:50;;;;;;;34.80;21.25;;;;;;;;;;6280343;22;20014;-94
2021/12/28 01:01:18;;;;;;;32.20;20.75;;;;;;;;;;6306275;22;20042;-93
2021/12/28 01:03:46;;;;;;;34.08;20.85;;;;;;;;;;6280531;22;20031;-93
2021/12/28 01:06:20;;;;;;;32.78;18.58;;;;;;;;;;6282009;22;20012;-94
2021/12/28 01:08:47;;;;;;;38.85;21.63;;;;;;;;;;6280409;22;20018;-92
2021/12/28 01:11:14;;;;;;;37.88;20.85;;;;;;;;;;6280277;22;20008;-93
2021/12/28 01:13:44;;;;;;;33.17;19.75;;;;;;;;;;6280909;22;20019;-93
2021/12/28 01:16:14;;;;;;;35.78;21.02;;;;;;;;;;6280167;22;20031;-93
2021/12/28 01:18:45;;;;;;;32.75;19.77;;;;;;;;;;6280986;22;20104;-93
2021/12/28 01:21:12;;;;;;;30.30;20.65;;;;;;;;;;6280155;22;20027;-93
2021/12/28 01:23:52;;;;;;;31.60;20.08;;;;;;;;;;6282474;22;20011;-93
2021/12/28 01:26:22;;;;;;;35.20;20.05;;;;;;;;;;6280011;22;20028;-93
2021/12/28 01:28:48;;;;;;;36.67;21.75;;;;;;;;;;6279478;22;20015;-93
2021/12/28 01:31:16;;;;;;;35.00;20.48;;;;;;;;;;6279644;22;20037;-93
2021/12/28 01:33:57;;;;;;;36.63;20.63;;;;;;;;;;6281439;22;20087;-94
2021/12/28 01:36:24;;;;;;;33.63;20.65;;;;;;;;;;6279590;22;20012;-93
2021/12/28 01:39:05;;;;;;;35.08;20.83;;;;;;;;;;6281324;22;20062;-93
2021/12/28 01:41:46;;;;;;;33.30;19.55;;;;;;;;;;6282388;22;20018;-93
2021/12/28 01:44:22;;;;;;;34.72;21.42;;;;;;;;;;6281434;22;20038;-94
2021/12/28 01:47:03;;;;;;;31.52;19.00;;;;;;;;;;6282558;22;20012;-94
2021/12/28 01:49:34;;;;;;;43.10;22.27;;;;;;;;;;6280458;22;20050;-93
2021/12/28 01:52:14;;;;;;;35.35;21.50;;;;;;;;;;6281344;22;20031;-93
2021/12/28 01:54:55;;;;;;;34.20;20.42;;;;;;;;;;6280863;22;20012;-93
2021/12/28 01:57:35;;;;;;;35.17;20.08;;;;;;;;;;6281221;22;20038;-94
2021/12/28 02:00:08;;;;;;;34.22;20.70;;;;;;;;;;6280339;22;20015;-94
2021/12/28 02:02:48;;;;;;;35.78;21.42;;;;;;;;;;6279869;22;20037;-93
2021/12/28 02:05:24;;;;;;;36.15;21.27;;;;;;;;;;6280970;22;20024;-94
2021/12/28 02:08:05;;;;;;;36.35;21.77;;;;;;;;;;6276700;22;20012;-93
2021/12/28 02:10:37;;;;;;;36.00;21.52;;;;;;;;;;6279730;22;20075;-94
2021/12/28 02:13:18;;;;;;;40.50;23.33;;;;;;;;;;6268047;22;20031;-93
2021/12/28 02:15:56;;;;;;;31.85;20.02;;;;;;;;;;6280794;22;20012;-93
2021/12/28 02:18:37;;;;;;;35.22;20.45;;;;;;;;;;6281631;22;20012;-93
2021/12/28 02:21:06;;;;;;;39.53;24.10;;;;;;;;;;6278893;22;20027;-93
2021/12/28 02:23:33;;;;;;;34.83;21.48;;;;;;;;;;6278809;22;20089;-94
2021/12/28 02:26:01;;;;;;;36.20;21.02;;;;;;;;;;6278812;22;20016;-94
2021/12/28 02:28:29;;;;;;;35.03;21.65;;;;;;;;;;6279310;22;20007;-94
2021/12/28 02:30:58;;;;;;;37.50;21.85;;;;;;;;;;6279070;22;20011;-93
2021/12/28 02:33:26;;;;;;;36.53;22.05;;;;;;;;;;6278548;22;20027;-93
2021/12/28 02:35:54;;;;;;;34.97;21.88;;;;;;;;;;6278254;22;20016;-94
2021/12/28 02:38:25;;;;;;;36.15;22.02;;;;;;;;;;6279126;22;20012;-94
2021/12/28 02:40:52;;;;;;;37.35;20.90;;;;;;;;;;6277903;22;20039;-95
2021/12/28 02:43:19;;;;;;;36.92;20.50;;;;;;;;;;6278245;22;20105;-94
2021/12/28 02:45:57;;;;;;;35.60;20.85;;;;;;;;;;6278286;22;20018;-93
2021/12/28 02:48:26;;;;;;;36.10;20.95;;;;;;;;;;6278751;22;20030;-93
2021/12/28 02:51:01;;;;;;;35.55;22.50;;;;;;;;;;6278326;22;20023;-94
2021/12/28 02:53:27;;;;;;;36.83;21.02;;;;;;;;;;6278176;22;20007;-93
2021/12/28 02:55:57;;;;;;;36.17;21.25;;;;;;;;;;6278919;22;20034;-94
2021/12/28 02:58:25;;;;;;;37.97;22.42;;;;;;;;;;6278743;22;20038;-93
2021/12/28 03:00:56;;;;;;;36.47;22.13;;;;;;;;;;6278635;22;20019;-93
2021/12/28 03:03:25;;;;;;;35.25;22.20;;;;;;;;;;6278654;22;20023;-95
2021/12/28 03:05:54;;;;;;;36.38;21.55;;;;;;;;;;6278634;22;20060;-95
2021/12/28 03:08:23;;;;;;;38.40;22.52;;;;;;;;;;6278819;22;20012;-94
2021/12/28 03:10:51;;;;;;;36.80;22.40;;;;;;;;;;6277713;22;20007;-93
2021/12/28 03:13:34;;;;;;;36.60;22.10;;;;;;;;;;6277037;22;20003;-94
2021/12/28 03:16:02;;;;;;;38.53;22.38;;;;;;;;;;6277420;22;20012;-95
2021/12/28 03:18:31;;;;;;;38.10;22.65;;;;;;;;;;6274926;22;20046;-95
2021/12/28 03:20:59;;;;;;;38.38;25.27;;;;;;;;;;6277222;22;20058;-95
2021/12/28 03:23:26;;;;;;;44.63;25.02;;;;;;;;;;6278071;22;20062;-95
2021/12/28 03:26:03;;;;;;;38.10;22.77;;;;;;;;;;6280141;22;20011;-95
2021/12/28 03:28:44;;;;;;;37.17;21.88;;;;;;;;;;6278890;22;20027;-95
2021/12/28 03:31:20;;;;;;;47.38;24.80;;;;;;;;;;6277736;22;20034;-94
2021/12/28 03:33:48;;;;;;;45.38;25.95;;;;;;;;;;6278732;22;20026;-94
2021/12/28 03:36:29;;;;;;;41.95;25.52;;;;;;;;;;6280585;22;20007;-94
2021/12/28 03:39:00;;;;;;;42.38;24.83;;;;;;;;;;6279402;22;20055;-94
2021/12/28 03:41:40;;;;;;;46.00;26.58;;;;;;;;;;6280410;22;20007;-95
2021/12/28 03:44:21;;;;;;;46.03;25.50;;;;;;;;;;6269298;22;20031;-93
2021/12/28 03:47:02;;;;;;;43.05;25.02;;;;;;;;;;6249667;22;20015;-93
2021/12/28 03:49:43;;;;;;;44.60;25.27;;;;;;;;;;6249991;22;20067;-94
2021/12/28 03:52:12;;;;;;;41.45;24.23;;;;;;;;;;6249720;22;20042;-92
2021/12/28 03:54:52;;;;;;;45.83;25.83;;;;;;;;;;6236467;22;20007;-94
2021/12/28 03:57:21;;;;;;;46.15;27.55;;;;;;;;;;6250186;22;20028;-93
2021/12/28 03:59:48;;;;;;;41.80;25.50;;;;;;;;;;6249795;22;20059;-92
2021/12/28 04:02:15;;;;;;;39.50;22.60;;;;;;;;;;6249783;22;20028;-94
2021/12/28 04:04:56;;;;;;;42.83;25.85;;;;;;;;;;6251871;22;20019;-93
2021/12/28 04:07:25;;;;;;;41.30;26.13;;;;;;;;;;6250341;22;20012;-92
2021/12/28 04:12:21;;;;;;;45.28;28.20;;;;;;;;;;6275421;22;20008;-94
2021/12/28 04:14:48;;;;;;;45.95;25.20;;;;;;;;;;6249609;22;20012;-94
2021/12/28 04:17:19;;;;;;;42.47;24.33;;;;;;;;;;6250533;22;20042;-94
2021/12/28 04:19:47;;;;;;;44.50;25.40;;;;;;;;;;6249781;22;20024;-93
2021/12/28 04:22:28;;;;;;;45.40;26.70;;;;;;;;;;6250893;22;20042;-93
2021/12/28 04:24:55;;;;;;;44.97;25.92;;;;;;;;;;6249603;22;20028;-93
2021/12/28 04:27:22;;;;;;;43.53;25.33;;;;;;;;;;6249500;22;20012;-93
2021/12/28 04:29:50;;;;;;;41.20;22.17;;;;;;;;;;6249430;22;20008;-94
2021/12/28 04:32:30;;;;;;;43.33;25.20;;;;;;;;;;6251099;22;20004;-93
2021/12/28 04:34:57;;;;;;;43.83;25.25;;;;;;;;;;6249262;22;20038;-94
2021/12/28 04:37:29;;;;;;;42.03;24.55;;;;;;;;;;6250861;22;20032;-94
2021/12/28 04:39:56;;;;;;;40.53;24.55;;;;;;;;;;6249138;22;20032;-94
2021/12/28 04:42:26;;;;;;;46.60;26.20;;;;;;;;;;6250062;22;20050;-94
2021/12/28 04:44:54;;;;;;;38.60;23.67;;;;;;;;;;6266282;22;20020;-93
2021/12/28 04:47:22;;;;;;;42.33;24.67;;;;;;;;;;6280173;22;20022;-94
2021/12/28 04:49:48;;;;;;;45.15;25.08;;;;;;;;;;6279877;22;20008;-95
2021/12/28 04:52:19;;;;;;;40.50;25.13;;;;;;;;;;6280883;22;20016;-94
2021/12/28 04:54:48;;;;;;;43.00;24.55;;;;;;;;;;6279938;22;20008;-95
2021/12/28 04:57:17;;;;;;;44.97;24.63;;;;;;;;;;6280337;22;20063;-95
2021/12/28 04:59:51;;;;;;;42.22;26.30;;;;;;;;;;6281524;22;20027;-94
2021/12/28 05:02:22;;;;;;;43.50;25.77;;;;;;;;;;6280105;22;20035;-94
2021/12/28 05:05:03;;;;;;;42.58;24.33;;;;;;;;;;6280144;22;20031;-95
2021/12/28 05:07:33;;;;;;;49.25;25.83;;;;;;;;;;6280437;22;20012;-95
2021/12/28 05:10:00;;;;;;;42.45;24.58;;;;;;;;;;6280149;22;20008;-94
2021/12/28 05:15:50;;;;;;;39.67;24.92;;;;;;;;;;6306032;22;20114;-94
2021/12/28 05:18:31;;;;;;;38.85;24.08;;;;;;;;;;6282895;22;20012;-92
2021/12/28 05:20:58;;;;;;;38.97;24.85;;;;;;;;;;6279913;22;20063;-94
2021/12/28 05:23:39;;;;;;;43.97;26.85;;;;;;;;;;6276859;22;20032;-93
2021/12/28 05:26:09;;;;;;;41.20;25.42;;;;;;;;;;6280070;22;20018;-93
2021/12/28 05:28:50;;;;;;;44.35;26.35;;;;;;;;;;6282736;22;20029;-93
2021/12/28 05:31:17;;;;;;;41.22;26.33;;;;;;;;;;6279807;22;20059;-93
2021/12/28 05:33:44;;;;;;;43.45;25.35;;;;;;;;;;6279487;22;20168;-93
2021/12/28 05:36:11;;;;;;;39.33;23.67;;;;;;;;;;6279817;22;20024;-93
2021/12/28 05:38:52;;;;;;;44.55;26.08;;;;;;;;;;6281674;22;20004;-94
2021/12/28 05:41:19;;;;;;;41.05;25.70;;;;;;;;;;6279625;22;20071;-94
2021/12/28 05:43:47;;;;;;;45.17;26.63;;;;;;;;;;6279700;22;20030;-92
2021/12/28 05:46:15;;;;;;;43.35;24.80;;;;;;;;;;6279985;22;20018;-92
2021/12/28 05:48:47;;;;;;;41.95;22.88;;;;;;;;;;6280393;22;20012;-93
2021/12/28 05:51:15;;;;;;;43.10;25.63;;;;;;;;;;6279794;22;20050;-93
2021/12/28 05:53:43;;;;;;;42.45;24.08;;;;;;;;;;6279750;22;20063;-94
2021/12/28 05:56:14;;;;;;;43.35;25.92;;;;;;;;;;6280298;22;20031;-94
2021/12/28 05:58:41;;;;;;;42.83;26.23;;;;;;;;;;6279770;22;20007;-93
2021/12/28 06:01:08;;;;;;;37.40;24.55;;;;;;;;;;6279226;22;20034;-93
2021/12/28 06:03:43;;;;;;;46.72;27.25;;;;;;;;;;6281049;22;20030;-93
2021/12/28 06:06:10;;;;;;;43.05;24.98;;;;;;;;;;6279289;22;20061;-94
2021/12/28 06:08:51;;;;;;;44.78;24.85;;;;;;;;;;6280766;22;20012;-92
2021/12/28 06:11:31;;;;;;;43.88;25.52;;;;;;;;;;6281955;22;20008;-92
2021/12/28 06:13:59;;;;;;;43.75;25.02;;;;;;;;;;6279322;22;20039;-93
2021/12/28 06:16:37;;;;;;;45.67;25.52;;;;;;;;;;6279490;22;20022;-93
2021/12/28 06:19:08;;;;;;;44.22;25.67;;;;;;;;;;6279490;22;20076;-94
2021/12/28 06:21:37;;;;;;;41.67;25.20;;;;;;;;;;6279700;22;20042;-94
2021/12/28 06:24:09;;;;;;;37.40;23.20;;;;;;;;;;6280410;22;20008;-94
2021/12/28 06:26:36;;;;;;;42.17;25.00;;;;;;;;;;6279089;22;20012;-95
2021/12/28 06:29:15;;;;;;;44.33;25.35;;;;;;;;;;6281437;22;20030;-94
2021/12/28 06:56:32;;;;;;;44.27;24.00;;;;;;;;;;6273553;22;20019;-95
2021/12/28 06:59:02;;;;;;;42.88;25.98;;;;;;;;;;6283036;22;20034;-94
2021/12/28 07:01:31;;;;;;;40.85;23.83;;;;;;;;;;6306298;22;20020;-95
2021/12/28 07:04:11;;;;;;;42.78;24.90;;;;;;;;;;6282112;22;20026;-95
2021/12/28 07:06:38;;;;;;;44.35;25.63;;;;;;;;;;6280733;22;20008;-94
2021/12/28 07:09:19;;;;;;;47.90;26.13;;;;;;;;;;6282222;22;20008;-94
2021/12/28 07:11:47;;;;;;;46.03;26.83;;;;;;;;;;6280377;22;20008;-94
2021/12/28 07:14:31;;;;;;;46.13;24.35;;;;;;;;;;6283068;22;20035;-93
2021/12/28 07:17:00;;;;;;;45.95;25.52;;;;;;;;;;6280813;22;20012;-93
2021/12/28 07:19:34;;;;;;;45.42;26.17;;;;;;;;;;6281999;22;20014;-93
2021/12/28 07:22:04;;;;;;;41.13;24.02;;;;;;;;;;6281080;22;20008;-94
2021/12/28 07:24:34;;;;;;;45.35;26.13;;;;;;;;;;6280767;22;20018;-94
2021/12/28 07:27:02;;;;;;;41.03;24.15;;;;;;;;;;6281574;22;20033;-93
2021/12/28 07:29:33;;;;;;;40.17;24.27;;;;;;;;;;6283156;22;20018;-94
2021/12/28 07:32:06;;;;;;;48.53;26.50;;;;;;;;;;6283168;22;20011;-94
2021/12/28 07:34:34;;;;;;;45.13;25.70;;;;;;;;;;6282410;22;20037;-94
2021/12/28 07:37:02;;;;;;;38.35;24.50;;;;;;;;;;6282225;22;20075;-94
2021/12/28 07:39:29;;;;;;;40.05;23.38;;;;;;;;;;6282472;22;20007;-93
2021/12/28 07:41:57;;;;;;;46.03;25.55;;;;;;;;;;6282430;22;20069;-94
2021/12/28 07:44:29;;;;;;;43.42;24.52;;;;;;;;;;6283269;22;20019;-94
2021/12/28 07:47:20;;;;;;;43.72;24.50;;;;;;;;;;6283269;22;20034;-94
2021/12/28 07:49:49;;;;;;;44.17;24.42;;;;;;;;;;6281207;22;20011;-95
2021/12/28 07:52:16;;;;;;;42.25;24.05;;;;;;;;;;6281048;22;20007;-93
2021/12/28 07:54:51;;;;;;;42.33;23.80;;;;;;;;;;6282457;22;20034;-94
2021/12/28 07:57:18;;;;;;;38.25;21.85;;;;;;;;;;6280529;22;20011;-94
2021/12/28 07:59:53;;;;;;;36.67;23.65;;;;;;;;;;6282681;22;20076;-94
2021/12/28 08:02:34;;;;;;;37.97;24.33;;;;;;;;;;6305798;22;20015;-94
2021/12/28 08:05:15;;;;;;;39.63;22.70;;;;;;;;;;6282540;22;20186;-93
2021/12/28 08:07:43;;;;;;;41.40;22.73;;;;;;;;;;6280779;22;20030;-94
2021/12/28 08:10:16;;;;;;;37.25;20.67;;;;;;;;;;6281331;22;20042;-94
2021/12/28 08:12:54;;;;;;;42.47;23.85;;;;;;;;;;6282247;22;20030;-94
2021/12/28 08:15:25;;;;;;;41.15;22.52;;;;;;;;;;6280793;22;20024;-93
2021/12/28 08:18:09;;;;;;;36.63;20.25;;;;;;;;;;6283291;22;20008;-94
2021/12/28 08:20:39;;;;;;;42.13;23.40;;;;;;;;;;6281200;22;20012;-93
2021/12/28 08:23:08;;;;;;;34.28;22.52;;;;;;;;;;6280802;22;20064;-93
2021/12/28 08:25:37;;;;;;;36.25;21.98;;;;;;;;;;6280689;22;20058;-94
2021/12/28 08:28:11;;;;;;;39.50;21.40;;;;;;;;;;6280678;22;20011;-94
2021/12/28 08:30:52;;;;;;;38.10;21.40;;;;;;;;;;6281245;22;20047;-94
2021/12/28 08:33:19;;;;;;;34.33;19.63;;;;;;;;;;6279699;22;20059;-92
2021/12/28 08:36:15;;;;;;;29.17;17.98;;;;;;;;;;6279829;22;20016;-93
2021/12/28 08:38:58;;;;;;;27.63;18.27;;;;;;;;;;6303948;22;20034;-93
2021/12/28 08:41:54;;;;;;;30.88;17.50;;;;;;;;;;6280786;22;20007;-94
2021/12/28 08:44:35;;;;;;;32.30;18.93;;;;;;;;;;6282597;22;20071;-94
2021/12/28 08:47:15;;;;;;;30.65;19.52;;;;;;;;;;6282929;22;20038;-94
2021/12/28 08:49:57;;;;;;;28.27;17.90;;;;;;;;;;6281396;22;20507;-94
2021/12/28 08:52:46;;;;;;;35.03;19.10;;;;;;;;;;6280481;22;20033;-92
2021/12/28 08:55:20;;;;;;;32.97;18.20;;;;;;;;;;6279993;22;20035;-92
2021/12/28 08:58:02;;;;;;;30.33;17.65;;;;;;;;;;6273899;22;20024;-93
2021/12/28 09:00:43;;;;;;;30.83;18.40;;;;;;;;;;6271442;22;20028;-94
2021/12/28 09:13:42;;;;;;;27.23;14.00;;;;;;;;;;6275261;22;20002;-93
2021/12/28 09:16:10;;;;;;;23.55;14.50;;;;;;;;;;6248376;22;20032;-93
2021/12/28 09:18:38;;;;;;;23.90;13.63;;;;;;;;;;6248165;22;20028;-93
2021/12/28 09:21:18;;;;;;;21.35;13.07;;;;;;;;;;6230342;22;20058;-94
2021/12/28 09:23:46;;;;;;;25.05;13.48;;;;;;;;;;6248054;22;20031;-95
2021/12/28 09:36:33;;;;;;;20.48;13.18;;;;;;;;;;6275003;22;20042;-94
2021/12/28 16:15:38;;;;;;;27.00;12.68;;;;;;;;;;6240231;22;20007;-91
2021/12/28 16:18:19;;;;;;;20.08;11.95;;;;;;;;;;6280951;22;20019;-92
2021/12/28 16:21:00;;;;;;;24.50;13.50;;;;;;;;;;6282369;22;20082;-92
2021/12/28 16:23:41;;;;;;;20.42;12.57;;;;;;;;;;6281223;22;20018;-92
2021/12/28 16:26:24;;;;;;;20.45;12.48;;;;;;;;;;6282777;22;20010;-91
2021/12/28 16:29:05;;;;;;;19.88;12.80;;;;;;;;;;6280766;22;20051;-93
